sensor_id;sensor_type;location;lat;lon;timestamp;P1;durP1;ratioP1;P2;durP2;ratioP2
8319;SDS011;4197;42.130;24.746;2023-03-14T00:01:43;8.63;;;4.30;;
8319;SDS011;4197;42.130;24.746;2023-03-14T00:04:12;9.50;;;5.07;;
8319;SDS011;4197;42.130;24.746;2023-03-14T00:06:42;7.77;;;5.43;;
8319;SDS011;4197;42.130;24.746;2023-03-14T00:09:10;9.23;;;4.90;;
8319;SDS011;4197;42.130;24.746;2023-03-14T00:11:38;5.67;;;4.10;;
8319;SDS011;4197;42.130;24.746;2023-03-14T00:14:06;12.93;;;5.07;;
8319;SDS011;4197;42.130;24.746;2023-03-14T00:16:34;6.63;;;4.17;;
8319;SDS011;4197;42.130;24.746;2023-03-14T00:19:03;11.97;;;4.33;;
8319;SDS011;4197;42.130;24.746;2023-03-14T00:21:31;6.93;;;4.80;;
8319;SDS011;4197;42.130;24.746;2023-03-14T00:24:00;6.83;;;4.57;;
8319;SDS011;4197;42.130;24.746;2023-03-14T00:26:29;7.07;;;4.40;;
8319;SDS011;4197;42.130;24.746;2023-03-14T00:28:57;12.30;;;5.00;;
8319;SDS011;4197;42.130;24.746;2023-03-14T00:31:25;10.37;;;5.10;;
8319;SDS011;4197;42.130;24.746;2023-03-14T00:33:53;8.13;;;5.73;;
8319;SDS011;4197;42.130;24.746;2023-03-14T00:36:22;8.90;;;5.30;;
8319;SDS011;4197;42.130;24.746;2023-03-14T00:38:51;11.30;;;5.80;;
8319;SDS011;4197;42.130;24.746;2023-03-14T00:41:21;9.20;;;5.77;;
8319;SDS011;4197;42.130;24.746;2023-03-14T00:43:50;10.70;;;6.10;;
8319;SDS011;4197;42.130;24.746;2023-03-14T00:46:19;8.27;;;5.80;;
8319;SDS011;4197;42.130;24.746;2023-03-14T00:48:47;8.43;;;5.20;;
8319;SDS011;4197;42.130;24.746;2023-03-14T00:51:15;8.90;;;5.90;;
8319;SDS011;4197;42.130;24.746;2023-03-14T00:53:43;8.37;;;5.53;;
8319;SDS011;4197;42.130;24.746;2023-03-14T00:56:12;10.67;;;6.33;;
8319;SDS011;4197;42.130;24.746;2023-03-14T00:58:43;9.07;;;6.03;;
8319;SDS011;4197;42.130;24.746;2023-03-14T01:01:13;10.60;;;5.60;;
8319;SDS011;4197;42.130;24.746;2023-03-14T01:03:42;10.93;;;6.03;;
8319;SDS011;4197;42.130;24.746;2023-03-14T01:06:11;9.93;;;6.83;;
8319;SDS011;4197;42.130;24.746;2023-03-14T01:08:42;10.50;;;6.43;;
8319;SDS011;4197;42.130;24.746;2023-03-14T01:11:11;10.17;;;6.13;;
8319;SDS011;4197;42.130;24.746;2023-03-14T01:13:41;8.93;;;5.60;;
8319;SDS011;4197;42.130;24.746;2023-03-14T01:16:12;9.47;;;6.53;;
8319;SDS011;4197;42.130;24.746;2023-03-14T01:18:41;10.53;;;6.90;;
8319;SDS011;4197;42.130;24.746;2023-03-14T01:21:11;10.80;;;6.53;;
8319;SDS011;4197;42.130;24.746;2023-03-14T01:23:42;11.40;;;7.23;;
8319;SDS011;4197;42.130;24.746;2023-03-14T01:26:11;10.67;;;6.90;;
8319;SDS011;4197;42.130;24.746;2023-03-14T01:28:41;10.43;;;6.47;;
8319;SDS011;4197;42.130;24.746;2023-03-14T01:31:10;11.87;;;7.37;;
8319;SDS011;4197;42.130;24.746;2023-03-14T01:33:40;10.77;;;6.90;;
8319;SDS011;4197;42.130;24.746;2023-03-14T01:36:09;13.43;;;7.43;;
8319;SDS011;4197;42.130;24.746;2023-03-14T01:38:39;11.50;;;7.83;;
8319;SDS011;4197;42.130;24.746;2023-03-14T01:41:12;12.93;;;8.13;;
8319;SDS011;4197;42.130;24.746;2023-03-14T01:43:43;13.80;;;8.70;;
8319;SDS011;4197;42.130;24.746;2023-03-14T01:46:16;13.60;;;8.50;;
8319;SDS011;4197;42.130;24.746;2023-03-14T01:48:48;14.53;;;9.17;;
8319;SDS011;4197;42.130;24.746;2023-03-14T01:51:24;16.83;;;9.43;;
8319;SDS011;4197;42.130;24.746;2023-03-14T01:53:55;16.63;;;8.53;;
8319;SDS011;4197;42.130;24.746;2023-03-14T01:56:29;13.83;;;9.33;;
8319;SDS011;4197;42.130;24.746;2023-03-14T01:58:58;16.03;;;9.87;;
8319;SDS011;4197;42.130;24.746;2023-03-14T02:01:30;18.93;;;10.17;;
8319;SDS011;4197;42.130;24.746;2023-03-14T02:03:59;17.90;;;10.10;;
8319;SDS011;4197;42.130;24.746;2023-03-14T02:06:33;18.17;;;10.23;;
8319;SDS011;4197;42.130;24.746;2023-03-14T02:09:08;17.40;;;10.03;;
8319;SDS011;4197;42.130;24.746;2023-03-14T02:11:36;14.67;;;9.77;;
8319;SDS011;4197;42.130;24.746;2023-03-14T02:14:04;14.30;;;9.30;;
8319;SDS011;4197;42.130;24.746;2023-03-14T02:16:35;15.80;;;9.73;;
8319;SDS011;4197;42.130;24.746;2023-03-14T02:19:05;15.80;;;8.93;;
8319;SDS011;4197;42.130;24.746;2023-03-14T02:21:38;14.77;;;9.37;;
8319;SDS011;4197;42.130;24.746;2023-03-14T02:24:16;13.83;;;9.47;;
8319;SDS011;4197;42.130;24.746;2023-03-14T02:29:45;13.63;;;9.60;;
8319;SDS011;4197;42.130;24.746;2023-03-14T02:32:19;15.00;;;8.63;;
8319;SDS011;4197;42.130;24.746;2023-03-14T02:34:49;14.63;;;8.83;;
8319;SDS011;4197;42.130;24.746;2023-03-14T02:37:23;12.40;;;8.60;;
8319;SDS011;4197;42.130;24.746;2023-03-14T02:39:57;16.23;;;9.00;;
8319;SDS011;4197;42.130;24.746;2023-03-14T02:42:27;14.53;;;8.13;;
8319;SDS011;4197;42.130;24.746;2023-03-14T02:44:58;14.30;;;8.60;;
8319;SDS011;4197;42.130;24.746;2023-03-14T02:47:49;15.63;;;9.13;;
8319;SDS011;4197;42.130;24.746;2023-03-14T02:50:22;16.77;;;8.53;;
8319;SDS011;4197;42.130;24.746;2023-03-14T02:52:53;13.40;;;8.30;;
8319;SDS011;4197;42.130;24.746;2023-03-14T02:55:22;11.83;;;8.23;;
8319;SDS011;4197;42.130;24.746;2023-03-14T02:57:53;11.63;;;7.70;;
8319;SDS011;4197;42.130;24.746;2023-03-14T03:00:21;9.73;;;7.73;;
8319;SDS011;4197;42.130;24.746;2023-03-14T03:02:49;12.20;;;8.30;;
8319;SDS011;4197;42.130;24.746;2023-03-14T03:05:18;11.60;;;8.57;;
8319;SDS011;4197;42.130;24.746;2023-03-14T03:07:46;13.63;;;8.30;;
8319;SDS011;4197;42.130;24.746;2023-03-14T03:10:14;13.33;;;7.83;;
8319;SDS011;4197;42.130;24.746;2023-03-14T03:12:43;13.67;;;8.20;;
8319;SDS011;4197;42.130;24.746;2023-03-14T03:15:13;11.33;;;7.60;;
8319;SDS011;4197;42.130;24.746;2023-03-14T03:17:41;10.10;;;8.33;;
8319;SDS011;4197;42.130;24.746;2023-03-14T03:20:09;11.93;;;8.70;;
8319;SDS011;4197;42.130;24.746;2023-03-14T03:22:39;15.60;;;10.13;;
8319;SDS011;4197;42.130;24.746;2023-03-14T03:25:07;16.70;;;9.83;;
8319;SDS011;4197;42.130;24.746;2023-03-14T03:27:36;14.50;;;9.63;;
8319;SDS011;4197;42.130;24.746;2023-03-14T03:30:05;16.27;;;9.60;;
8319;SDS011;4197;42.130;24.746;2023-03-14T03:32:37;15.43;;;10.17;;
8319;SDS011;4197;42.130;24.746;2023-03-14T03:35:06;18.37;;;10.47;;
8319;SDS011;4197;42.130;24.746;2023-03-14T03:37:34;15.50;;;10.00;;
8319;SDS011;4197;42.130;24.746;2023-03-14T03:40:03;18.23;;;10.10;;
8319;SDS011;4197;42.130;24.746;2023-03-14T03:42:33;12.70;;;9.40;;
8319;SDS011;4197;42.130;24.746;2023-03-14T03:45:01;19.77;;;10.57;;
8319;SDS011;4197;42.130;24.746;2023-03-14T03:47:31;17.93;;;11.00;;
8319;SDS011;4197;42.130;24.746;2023-03-14T03:50:00;13.20;;;9.60;;
8319;SDS011;4197;42.130;24.746;2023-03-14T03:52:28;18.60;;;10.53;;
8319;SDS011;4197;42.130;24.746;2023-03-14T03:54:57;21.50;;;11.17;;
8319;SDS011;4197;42.130;24.746;2023-03-14T03:57:25;22.73;;;10.43;;
8319;SDS011;4197;42.130;24.746;2023-03-14T03:59:53;15.47;;;11.17;;
8319;SDS011;4197;42.130;24.746;2023-03-14T04:02:21;14.70;;;9.90;;
8319;SDS011;4197;42.130;24.746;2023-03-14T04:04:50;16.90;;;9.77;;
8319;SDS011;4197;42.130;24.746;2023-03-14T04:07:19;15.40;;;10.37;;
8319;SDS011;4197;42.130;24.746;2023-03-14T04:09:48;17.23;;;11.17;;
8319;SDS011;4197;42.130;24.746;2023-03-14T04:12:17;19.13;;;10.57;;
8319;SDS011;4197;42.130;24.746;2023-03-14T04:14:45;15.30;;;10.47;;
8319;SDS011;4197;42.130;24.746;2023-03-14T04:17:13;16.53;;;11.07;;
8319;SDS011;4197;42.130;24.746;2023-03-14T04:19:41;20.53;;;11.77;;
8319;SDS011;4197;42.130;24.746;2023-03-14T04:22:09;22.13;;;13.40;;
8319;SDS011;4197;42.130;24.746;2023-03-14T04:24:38;20.80;;;10.87;;
8319;SDS011;4197;42.130;24.746;2023-03-14T04:27:07;15.83;;;11.20;;
8319;SDS011;4197;42.130;24.746;2023-03-14T04:29:35;19.73;;;11.80;;
8319;SDS011;4197;42.130;24.746;2023-03-14T04:32:03;26.67;;;11.70;;
8319;SDS011;4197;42.130;24.746;2023-03-14T04:34:31;19.23;;;11.70;;
8319;SDS011;4197;42.130;24.746;2023-03-14T04:36:59;20.63;;;11.50;;
8319;SDS011;4197;42.130;24.746;2023-03-14T04:39:28;21.30;;;11.60;;
8319;SDS011;4197;42.130;24.746;2023-03-14T04:41:57;20.57;;;12.00;;
8319;SDS011;4197;42.130;24.746;2023-03-14T04:44:25;22.47;;;12.20;;
8319;SDS011;4197;42.130;24.746;2023-03-14T04:46:54;21.53;;;12.87;;
8319;SDS011;4197;42.130;24.746;2023-03-14T04:49:22;19.73;;;12.67;;
8319;SDS011;4197;42.130;24.746;2023-03-14T04:51:51;20.93;;;12.10;;
8319;SDS011;4197;42.130;24.746;2023-03-14T04:54:19;19.43;;;11.60;;
8319;SDS011;4197;42.130;24.746;2023-03-14T04:56:47;23.57;;;12.20;;
8319;SDS011;4197;42.130;24.746;2023-03-14T04:59:17;28.33;;;14.50;;
8319;SDS011;4197;42.130;24.746;2023-03-14T05:01:45;22.90;;;12.13;;
8319;SDS011;4197;42.130;24.746;2023-03-14T05:04:16;23.93;;;13.10;;
8319;SDS011;4197;42.130;24.746;2023-03-14T05:06:44;23.07;;;12.37;;
8319;SDS011;4197;42.130;24.746;2023-03-14T05:09:12;27.93;;;12.80;;
8319;SDS011;4197;42.130;24.746;2023-03-14T05:11:41;24.70;;;12.87;;
8319;SDS011;4197;42.130;24.746;2023-03-14T05:14:09;17.13;;;11.70;;
8319;SDS011;4197;42.130;24.746;2023-03-14T05:16:39;23.80;;;12.83;;
8319;SDS011;4197;42.130;24.746;2023-03-14T05:19:08;29.23;;;13.60;;
8319;SDS011;4197;42.130;24.746;2023-03-14T05:21:36;23.07;;;12.80;;
8319;SDS011;4197;42.130;24.746;2023-03-14T05:24:06;18.97;;;12.60;;
8319;SDS011;4197;42.130;24.746;2023-03-14T05:26:35;25.43;;;13.73;;
8319;SDS011;4197;42.130;24.746;2023-03-14T05:29:03;23.20;;;14.13;;
8319;SDS011;4197;42.130;24.746;2023-03-14T05:31:32;27.07;;;14.53;;
8319;SDS011;4197;42.130;24.746;2023-03-14T05:34:02;28.53;;;13.90;;
8319;SDS011;4197;42.130;24.746;2023-03-14T05:36:31;24.37;;;13.87;;
8319;SDS011;4197;42.130;24.746;2023-03-14T05:39:00;19.57;;;13.83;;
8319;SDS011;4197;42.130;24.746;2023-03-14T05:41:28;27.37;;;15.77;;
8319;SDS011;4197;42.130;24.746;2023-03-14T05:43:57;30.50;;;14.77;;
8319;SDS011;4197;42.130;24.746;2023-03-14T05:46:25;24.73;;;15.07;;
8319;SDS011;4197;42.130;24.746;2023-03-14T05:48:54;27.70;;;14.30;;
8319;SDS011;4197;42.130;24.746;2023-03-14T05:51:24;29.77;;;15.13;;
8319;SDS011;4197;42.130;24.746;2023-03-14T05:53:53;31.73;;;15.00;;
8319;SDS011;4197;42.130;24.746;2023-03-14T05:56:22;22.73;;;14.30;;
8319;SDS011;4197;42.130;24.746;2023-03-14T05:58:51;24.80;;;14.30;;
8319;SDS011;4197;42.130;24.746;2023-03-14T06:01:19;21.60;;;15.07;;
8319;SDS011;4197;42.130;24.746;2023-03-14T06:03:48;27.60;;;14.73;;
8319;SDS011;4197;42.130;24.746;2023-03-14T06:06:16;30.33;;;14.60;;
8319;SDS011;4197;42.130;24.746;2023-03-14T06:08:47;22.13;;;13.83;;
8319;SDS011;4197;42.130;24.746;2023-03-14T06:11:15;20.83;;;14.10;;
8319;SDS011;4197;42.130;24.746;2023-03-14T06:13:43;22.70;;;14.37;;
8319;SDS011;4197;42.130;24.746;2023-03-14T06:16:13;24.00;;;14.10;;
8319;SDS011;4197;42.130;24.746;2023-03-14T06:18:42;21.27;;;13.80;;
8319;SDS011;4197;42.130;24.746;2023-03-14T06:21:13;28.73;;;15.03;;
8319;SDS011;4197;42.130;24.746;2023-03-14T06:23:44;24.60;;;15.20;;
8319;SDS011;4197;42.130;24.746;2023-03-14T06:26:15;22.60;;;15.07;;
8319;SDS011;4197;42.130;24.746;2023-03-14T06:28:43;33.43;;;16.67;;
8319;SDS011;4197;42.130;24.746;2023-03-14T06:31:11;30.17;;;16.67;;
8319;SDS011;4197;42.130;24.746;2023-03-14T06:33:40;36.23;;;18.83;;
8319;SDS011;4197;42.130;24.746;2023-03-14T06:36:08;35.70;;;17.90;;
8319;SDS011;4197;42.130;24.746;2023-03-14T06:38:37;32.43;;;19.30;;
8319;SDS011;4197;42.130;24.746;2023-03-14T06:41:07;48.50;;;21.70;;
8319;SDS011;4197;42.130;24.746;2023-03-14T06:43:35;37.13;;;21.07;;
8319;SDS011;4197;42.130;24.746;2023-03-14T06:46:04;42.23;;;21.37;;
8319;SDS011;4197;42.130;24.746;2023-03-14T06:48:32;39.00;;;21.17;;
8319;SDS011;4197;42.130;24.746;2023-03-14T06:51:01;46.70;;;21.07;;
8319;SDS011;4197;42.130;24.746;2023-03-14T06:53:29;33.83;;;19.80;;
8319;SDS011;4197;42.130;24.746;2023-03-14T06:55:57;24.97;;;17.23;;
8319;SDS011;4197;42.130;24.746;2023-03-14T06:58:27;34.23;;;18.33;;
8319;SDS011;4197;42.130;24.746;2023-03-14T07:00:56;32.33;;;17.80;;
8319;SDS011;4197;42.130;24.746;2023-03-14T07:03:25;29.40;;;17.63;;
8319;SDS011;4197;42.130;24.746;2023-03-14T07:05:53;31.87;;;16.73;;
8319;SDS011;4197;42.130;24.746;2023-03-14T07:08:22;32.30;;;16.60;;
8319;SDS011;4197;42.130;24.746;2023-03-14T07:10:50;26.10;;;15.73;;
8319;SDS011;4197;42.130;24.746;2023-03-14T07:13:19;27.23;;;15.97;;
8319;SDS011;4197;42.130;24.746;2023-03-14T07:18:36;23.47;;;14.70;;
8319;SDS011;4197;42.130;24.746;2023-03-14T07:21:05;29.07;;;12.07;;
8319;SDS011;4197;42.130;24.746;2023-03-14T07:23:33;27.37;;;12.07;;
8319;SDS011;4197;42.130;24.746;2023-03-14T07:26:02;25.37;;;11.77;;
8319;SDS011;4197;42.130;24.746;2023-03-14T07:28:30;21.37;;;12.00;;
8319;SDS011;4197;42.130;24.746;2023-03-14T07:30:59;20.83;;;11.33;;
8319;SDS011;4197;42.130;24.746;2023-03-14T07:33:28;17.43;;;11.97;;
8319;SDS011;4197;42.130;24.746;2023-03-14T07:35:57;23.47;;;11.67;;
8319;SDS011;4197;42.130;24.746;2023-03-14T07:38:26;16.63;;;11.77;;
8319;SDS011;4197;42.130;24.746;2023-03-14T07:40:58;19.00;;;11.30;;
8319;SDS011;4197;42.130;24.746;2023-03-14T07:43:27;20.97;;;12.80;;
8319;SDS011;4197;42.130;24.746;2023-03-14T07:45:56;23.67;;;12.70;;
8319;SDS011;4197;42.130;24.746;2023-03-14T07:48:25;26.27;;;12.93;;
8319;SDS011;4197;42.130;24.746;2023-03-14T07:50:55;24.23;;;12.93;;
8319;SDS011;4197;42.130;24.746;2023-03-14T07:53:24;25.60;;;13.33;;
8319;SDS011;4197;42.130;24.746;2023-03-14T07:55:53;29.00;;;13.67;;
8319;SDS011;4197;42.130;24.746;2023-03-14T07:58:22;20.17;;;12.40;;
8319;SDS011;4197;42.130;24.746;2023-03-14T08:00:51;21.93;;;12.07;;
8319;SDS011;4197;42.130;24.746;2023-03-14T08:03:19;19.83;;;11.93;;
8319;SDS011;4197;42.130;24.746;2023-03-14T08:05:48;20.57;;;12.20;;
8319;SDS011;4197;42.130;24.746;2023-03-14T08:08:18;24.40;;;11.40;;
8319;SDS011;4197;42.130;24.746;2023-03-14T08:10:48;18.03;;;11.37;;
8319;SDS011;4197;42.130;24.746;2023-03-14T08:13:16;16.37;;;11.60;;
8319;SDS011;4197;42.130;24.746;2023-03-14T08:15:47;18.73;;;11.80;;
8319;SDS011;4197;42.130;24.746;2023-03-14T08:18:15;15.57;;;11.77;;
8319;SDS011;4197;42.130;24.746;2023-03-14T08:20:43;17.50;;;11.13;;
8319;SDS011;4197;42.130;24.746;2023-03-14T08:23:12;16.83;;;11.17;;
8319;SDS011;4197;42.130;24.746;2023-03-14T08:25:41;24.63;;;12.03;;
8319;SDS011;4197;42.130;24.746;2023-03-14T08:28:10;19.13;;;10.83;;
8319;SDS011;4197;42.130;24.746;2023-03-14T08:30:38;22.40;;;12.93;;
8319;SDS011;4197;42.130;24.746;2023-03-14T08:33:06;14.40;;;10.97;;
8319;SDS011;4197;42.130;24.746;2023-03-14T08:35:34;26.03;;;11.30;;
8319;SDS011;4197;42.130;24.746;2023-03-14T08:38:04;13.10;;;10.10;;
8319;SDS011;4197;42.130;24.746;2023-03-14T08:40:33;21.60;;;10.47;;
8319;SDS011;4197;42.130;24.746;2023-03-14T08:43:03;13.13;;;9.17;;
8319;SDS011;4197;42.130;24.746;2023-03-14T08:45:32;17.67;;;9.73;;
8319;SDS011;4197;42.130;24.746;2023-03-14T08:48:00;17.10;;;10.53;;
8319;SDS011;4197;42.130;24.746;2023-03-14T08:50:29;16.50;;;9.77;;
8319;SDS011;4197;42.130;24.746;2023-03-14T08:52:57;13.90;;;8.57;;
8319;SDS011;4197;42.130;24.746;2023-03-14T08:55:26;14.20;;;8.97;;
8319;SDS011;4197;42.130;24.746;2023-03-14T08:57:56;17.93;;;9.10;;
8319;SDS011;4197;42.130;24.746;2023-03-14T09:00:26;19.67;;;8.97;;
8319;SDS011;4197;42.130;24.746;2023-03-14T09:02:54;19.13;;;9.13;;
8319;SDS011;4197;42.130;24.746;2023-03-14T09:05:22;17.33;;;8.30;;
8319;SDS011;4197;42.130;24.746;2023-03-14T09:07:50;20.43;;;9.50;;
8319;SDS011;4197;42.130;24.746;2023-03-14T09:10:19;9.87;;;6.90;;
8319;SDS011;4197;42.130;24.746;2023-03-14T09:12:48;9.63;;;5.23;;
8319;SDS011;4197;42.130;24.746;2023-03-14T09:15:17;14.70;;;5.80;;
8319;SDS011;4197;42.130;24.746;2023-03-14T09:17:47;9.30;;;6.37;;
8319;SDS011;4197;42.130;24.746;2023-03-14T09:20:16;8.53;;;6.17;;
8319;SDS011;4197;42.130;24.746;2023-03-14T09:22:44;9.93;;;6.73;;
8319;SDS011;4197;42.130;24.746;2023-03-14T09:25:12;10.17;;;7.20;;
8319;SDS011;4197;42.130;24.746;2023-03-14T09:27:41;12.97;;;6.90;;
8319;SDS011;4197;42.130;24.746;2023-03-14T09:30:09;10.30;;;6.40;;
8319;SDS011;4197;42.130;24.746;2023-03-14T09:32:38;10.97;;;7.47;;
8319;SDS011;4197;42.130;24.746;2023-03-14T09:35:08;13.40;;;7.47;;
8319;SDS011;4197;42.130;24.746;2023-03-14T09:37:37;10.13;;;6.97;;
8319;SDS011;4197;42.130;24.746;2023-03-14T09:40:06;8.67;;;6.17;;
8319;SDS011;4197;42.130;24.746;2023-03-14T09:42:40;10.73;;;6.57;;
8319;SDS011;4197;42.130;24.746;2023-03-14T09:45:11;10.23;;;6.97;;
8319;SDS011;4197;42.130;24.746;2023-03-14T09:47:46;13.17;;;6.87;;
8319;SDS011;4197;42.130;24.746;2023-03-14T09:50:27;10.87;;;7.63;;
8319;SDS011;4197;42.130;24.746;2023-03-14T09:53:02;11.60;;;7.13;;
8319;SDS011;4197;42.130;24.746;2023-03-14T09:55:32;9.90;;;6.80;;
8319;SDS011;4197;42.130;24.746;2023-03-14T09:58:03;11.33;;;6.60;;
8319;SDS011;4197;42.130;24.746;2023-03-14T10:00:39;8.97;;;6.80;;
8319;SDS011;4197;42.130;24.746;2023-03-14T10:03:19;10.67;;;7.17;;
8319;SDS011;4197;42.130;24.746;2023-03-14T10:05:53;10.47;;;6.33;;
8319;SDS011;4197;42.130;24.746;2023-03-14T10:08:24;10.77;;;6.70;;
8319;SDS011;4197;42.130;24.746;2023-03-14T10:10:53;9.10;;;6.97;;
8319;SDS011;4197;42.130;24.746;2023-03-14T10:13:22;11.67;;;6.20;;
8319;SDS011;4197;42.130;24.746;2023-03-14T10:15:54;11.73;;;5.50;;
8319;SDS011;4197;42.130;24.746;2023-03-14T10:18:27;11.03;;;5.37;;
8319;SDS011;4197;42.130;24.746;2023-03-14T10:21:11;11.10;;;5.30;;
8319;SDS011;4197;42.130;24.746;2023-03-14T10:23:45;6.53;;;5.37;;
8319;SDS011;4197;42.130;24.746;2023-03-14T10:26:16;7.67;;;5.53;;
8319;SDS011;4197;42.130;24.746;2023-03-14T10:28:46;13.30;;;6.50;;
8319;SDS011;4197;42.130;24.746;2023-03-14T10:31:17;8.83;;;6.10;;
8319;SDS011;4197;42.130;24.746;2023-03-14T10:33:57;9.97;;;6.90;;
8319;SDS011;4197;42.130;24.746;2023-03-14T10:36:28;10.13;;;6.33;;
8319;SDS011;4197;42.130;24.746;2023-03-14T10:38:58;9.13;;;5.63;;
8319;SDS011;4197;42.130;24.746;2023-03-14T10:41:50;7.57;;;5.23;;
8319;SDS011;4197;42.130;24.746;2023-03-14T10:44:23;9.53;;;5.80;;
8319;SDS011;4197;42.130;24.746;2023-03-14T10:46:55;12.70;;;6.13;;
8319;SDS011;4197;42.130;24.746;2023-03-14T10:49:27;9.83;;;6.03;;
8319;SDS011;4197;42.130;24.746;2023-03-14T10:52:02;11.90;;;6.10;;
8319;SDS011;4197;42.130;24.746;2023-03-14T10:54:41;10.67;;;5.90;;
8319;SDS011;4197;42.130;24.746;2023-03-14T10:57:16;9.73;;;6.03;;
8319;SDS011;4197;42.130;24.746;2023-03-14T10:59:47;14.10;;;6.80;;
8319;SDS011;4197;42.130;24.746;2023-03-14T11:02:31;10.57;;;6.43;;
8319;SDS011;4197;42.130;24.746;2023-03-14T11:05:11;10.13;;;6.10;;
8319;SDS011;4197;42.130;24.746;2023-03-14T11:07:48;8.27;;;5.67;;
8319;SDS011;4197;42.130;24.746;2023-03-14T11:10:21;9.50;;;6.03;;
8319;SDS011;4197;42.130;24.746;2023-03-14T11:13:00;10.80;;;7.20;;
8319;SDS011;4197;42.130;24.746;2023-03-14T11:15:34;9.50;;;7.03;;
8319;SDS011;4197;42.130;24.746;2023-03-14T11:18:12;9.07;;;6.53;;
8319;SDS011;4197;42.130;24.746;2023-03-14T11:20:53;13.40;;;6.50;;
8319;SDS011;4197;42.130;24.746;2023-03-14T11:23:29;6.30;;;4.40;;
8319;SDS011;4197;42.130;24.746;2023-03-14T11:26:09;6.07;;;4.40;;
8319;SDS011;4197;42.130;24.746;2023-03-14T11:28:47;12.87;;;5.13;;
8319;SDS011;4197;42.130;24.746;2023-03-14T11:31:19;5.67;;;3.80;;
8319;SDS011;4197;42.130;24.746;2023-03-14T11:33:55;6.27;;;4.73;;
8319;SDS011;4197;42.130;24.746;2023-03-14T11:36:29;11.90;;;4.67;;
8319;SDS011;4197;42.130;24.746;2023-03-14T11:39:02;9.73;;;4.97;;
8319;SDS011;4197;42.130;24.746;2023-03-14T11:41:38;5.57;;;3.93;;
8319;SDS011;4197;42.130;24.746;2023-03-14T11:44:10;5.93;;;4.07;;
8319;SDS011;4197;42.130;24.746;2023-03-14T11:46:47;10.13;;;4.10;;
8319;SDS011;4197;42.130;24.746;2023-03-14T11:49:24;6.70;;;3.93;;
8319;SDS011;4197;42.130;24.746;2023-03-14T11:51:59;7.87;;;4.50;;
8319;SDS011;4197;42.130;24.746;2023-03-14T11:54:35;7.47;;;4.23;;
8319;SDS011;4197;42.130;24.746;2023-03-14T11:57:14;13.10;;;4.87;;
8319;SDS011;4197;42.130;24.746;2023-03-14T11:59:46;14.60;;;5.20;;
8319;SDS011;4197;42.130;24.746;2023-03-14T12:02:21;6.60;;;4.67;;
8319;SDS011;4197;42.130;24.746;2023-03-14T12:05:00;10.43;;;4.83;;
8319;SDS011;4197;42.130;24.746;2023-03-14T12:07:54;9.00;;;5.23;;
8319;SDS011;4197;42.130;24.746;2023-03-14T12:10:51;9.23;;;5.50;;
8319;SDS011;4197;42.130;24.746;2023-03-14T12:13:27;6.87;;;4.73;;
8319;SDS011;4197;42.130;24.746;2023-03-14T12:15:57;7.20;;;4.90;;
8319;SDS011;4197;42.130;24.746;2023-03-14T12:18:27;11.80;;;5.53;;
8319;SDS011;4197;42.130;24.746;2023-03-14T12:20:57;19.50;;;6.33;;
8319;SDS011;4197;42.130;24.746;2023-03-14T12:23:27;8.27;;;5.70;;
8319;SDS011;4197;42.130;24.746;2023-03-14T12:26:14;16.10;;;6.33;;
8319;SDS011;4197;42.130;24.746;2023-03-14T12:28:44;10.70;;;5.77;;
8319;SDS011;4197;42.130;24.746;2023-03-14T12:37:01;8.43;;;4.97;;
8319;SDS011;4197;42.130;24.746;2023-03-14T12:39:43;7.77;;;5.30;;
8319;SDS011;4197;42.130;24.746;2023-03-14T12:45:15;8.00;;;5.07;;
8319;SDS011;4197;42.130;24.746;2023-03-14T12:47:52;10.43;;;4.90;;
8319;SDS011;4197;42.130;24.746;2023-03-14T12:50:37;9.07;;;5.07;;
8319;SDS011;4197;42.130;24.746;2023-03-14T12:53:15;13.47;;;5.47;;
8319;SDS011;4197;42.130;24.746;2023-03-14T12:56:00;5.87;;;4.07;;
8319;SDS011;4197;42.130;24.746;2023-03-14T12:58:35;8.03;;;4.27;;
8319;SDS011;4197;42.130;24.746;2023-03-14T13:01:14;8.70;;;4.70;;
8319;SDS011;4197;42.130;24.746;2023-03-14T13:03:46;9.57;;;5.07;;
8319;SDS011;4197;42.130;24.746;2023-03-14T13:12:17;10.87;;;4.53;;
8319;SDS011;4197;42.130;24.746;2023-03-14T13:14:52;6.00;;;4.77;;
8319;SDS011;4197;42.130;24.746;2023-03-14T13:17:22;13.03;;;4.57;;
8319;SDS011;4197;42.130;24.746;2023-03-14T13:20:05;6.47;;;4.93;;
8319;SDS011;4197;42.130;24.746;2023-03-14T13:22:45;11.53;;;5.40;;
8319;SDS011;4197;42.130;24.746;2023-03-14T13:25:15;6.37;;;4.27;;
8319;SDS011;4197;42.130;24.746;2023-03-14T13:27:44;9.80;;;5.47;;
8319;SDS011;4197;42.130;24.746;2023-03-14T13:30:16;15.33;;;5.63;;
8319;SDS011;4197;42.130;24.746;2023-03-14T13:32:49;10.93;;;4.90;;
8319;SDS011;4197;42.130;24.746;2023-03-14T13:35:20;8.10;;;4.80;;
8319;SDS011;4197;42.130;24.746;2023-03-14T13:37:55;6.30;;;4.43;;
8319;SDS011;4197;42.130;24.746;2023-03-14T13:40:37;8.33;;;4.77;;
8319;SDS011;4197;42.130;24.746;2023-03-14T13:43:11;7.27;;;4.67;;
8319;SDS011;4197;42.130;24.746;2023-03-14T13:45:49;6.63;;;5.30;;
8319;SDS011;4197;42.130;24.746;2023-03-14T13:48:19;13.27;;;4.93;;
8319;SDS011;4197;42.130;24.746;2023-03-14T13:50:49;4.50;;;4.00;;
8319;SDS011;4197;42.130;24.746;2023-03-14T13:53:20;6.87;;;4.53;;
8319;SDS011;4197;42.130;24.746;2023-03-14T13:55:49;5.27;;;4.10;;
8319;SDS011;4197;42.130;24.746;2023-03-14T13:58:25;5.43;;;4.50;;
8319;SDS011;4197;42.130;24.746;2023-03-14T14:00:58;6.20;;;4.27;;
8319;SDS011;4197;42.130;24.746;2023-03-14T14:03:30;9.57;;;4.27;;
8319;SDS011;4197;42.130;24.746;2023-03-14T14:05:59;7.97;;;4.20;;
8319;SDS011;4197;42.130;24.746;2023-03-14T14:08:28;9.33;;;4.40;;
8319;SDS011;4197;42.130;24.746;2023-03-14T14:10:58;8.50;;;4.90;;
8319;SDS011;4197;42.130;24.746;2023-03-14T14:13:31;12.13;;;4.80;;
8319;SDS011;4197;42.130;24.746;2023-03-14T14:16:03;9.73;;;4.40;;
8319;SDS011;4197;42.130;24.746;2023-03-14T14:18:32;15.20;;;4.37;;
8319;SDS011;4197;42.130;24.746;2023-03-14T14:21:02;11.03;;;4.07;;
8319;SDS011;4197;42.130;24.746;2023-03-14T14:23:31;6.77;;;3.80;;
8319;SDS011;4197;42.130;24.746;2023-03-14T14:25:59;10.47;;;3.87;;
8319;SDS011;4197;42.130;24.746;2023-03-14T14:28:28;16.70;;;4.90;;
8319;SDS011;4197;42.130;24.746;2023-03-14T14:31:16;18.17;;;5.63;;
8319;SDS011;4197;42.130;24.746;2023-03-14T14:33:52;10.70;;;4.23;;
8319;SDS011;4197;42.130;24.746;2023-03-14T14:36:23;8.57;;;4.57;;
8319;SDS011;4197;42.130;24.746;2023-03-14T14:38:54;11.73;;;4.40;;
8319;SDS011;4197;42.130;24.746;2023-03-14T14:41:26;5.70;;;3.80;;
8319;SDS011;4197;42.130;24.746;2023-03-14T14:43:57;8.00;;;4.03;;
8319;SDS011;4197;42.130;24.746;2023-03-14T14:46:28;8.07;;;3.83;;
8319;SDS011;4197;42.130;24.746;2023-03-14T14:49:02;7.23;;;4.80;;
8319;SDS011;4197;42.130;24.746;2023-03-14T14:51:38;12.77;;;5.00;;
8319;SDS011;4197;42.130;24.746;2023-03-14T14:54:12;9.17;;;4.40;;
8319;SDS011;4197;42.130;24.746;2023-03-14T14:56:47;9.33;;;4.70;;
8319;SDS011;4197;42.130;24.746;2023-03-14T14:59:19;7.87;;;4.67;;
8319;SDS011;4197;42.130;24.746;2023-03-14T15:01:54;6.90;;;4.97;;
8319;SDS011;4197;42.130;24.746;2023-03-14T15:04:23;8.43;;;4.43;;
8319;SDS011;4197;42.130;24.746;2023-03-14T15:06:52;10.97;;;5.40;;
8319;SDS011;4197;42.130;24.746;2023-03-14T15:09:21;5.87;;;4.20;;
8319;SDS011;4197;42.130;24.746;2023-03-14T15:11:49;10.87;;;4.70;;
8319;SDS011;4197;42.130;24.746;2023-03-14T15:14:18;7.10;;;4.97;;
8319;SDS011;4197;42.130;24.746;2023-03-14T15:16:46;6.90;;;5.07;;
8319;SDS011;4197;42.130;24.746;2023-03-14T15:19:18;5.43;;;4.27;;
8319;SDS011;4197;42.130;24.746;2023-03-14T15:21:50;8.00;;;5.07;;
8319;SDS011;4197;42.130;24.746;2023-03-14T15:24:19;11.73;;;5.40;;
8319;SDS011;4197;42.130;24.746;2023-03-14T15:26:47;9.97;;;5.17;;
8319;SDS011;4197;42.130;24.746;2023-03-14T15:29:15;10.23;;;5.20;;
8319;SDS011;4197;42.130;24.746;2023-03-14T15:31:43;9.80;;;4.60;;